SWA3182 KLAX-KDEN
Flight info
| Callsign | SWA3182 |
|---|---|
| Flight time | 1h 46m |
| Altitude | 35000 |
| Route | ORCKA5 LAS J146 DICEE BUMMP SSKII4 |
| Aircraft | B738/M-SDE2E3FGHIRWXY/LB1 |
Departure
| Time | 2026-04-24 20:38 |
|---|---|
| Airport | Los Angeles International Airport (KLAX) |
Arrival
| Time | 2026-04-24 22:24 |
|---|---|
| Airport | Denver International Airport (KDEN) |
| Time | Latitude | Longitude | Altitude | Speed | Heading |
|---|---|---|---|---|---|
| 2026-04-24 20:02 | 33.94791 | -118.40125 | 94 ft | 0 kts | 185° |
| 2026-04-24 20:29 | 33.94804 | -118.40121 | 94 ft | 3 kts | 234° |
| 2026-04-24 20:29 | 33.94812 | -118.40111 | 94 ft | 1 kts | 208° |
| 2026-04-24 20:29 | 33.94812 | -118.40115 | 95 ft | 3 kts | 248° |
| 2026-04-24 20:35 | 33.94808 | -118.40138 | 95 ft | 8 kts | 260° |
| 2026-04-24 20:35 | 33.94814 | -118.40225 | 97 ft | 12 kts | 286° |
| 2026-04-24 20:35 | 33.94860 | -118.40290 | 97 ft | 11 kts | 347° |
| 2026-04-24 20:35 | 33.94899 | -118.40257 | 99 ft | 7 kts | 74° |
| 2026-04-24 20:36 | 33.94906 | -118.40198 | 98 ft | 8 kts | 83° |
| 2026-04-24 20:36 | 33.94914 | -118.40111 | 99 ft | 12 kts | 84° |
| 2026-04-24 20:36 | 33.94923 | -118.40008 | 98 ft | 12 kts | 83° |
| 2026-04-24 20:36 | 33.94942 | -118.39935 | 100 ft | 8 kts | 50° |
| 2026-04-24 20:37 | 33.94989 | -118.39912 | 105 ft | 7 kts | 1° |
| 2026-04-24 20:37 | 33.95034 | -118.39934 | 107 ft | 8 kts | 309° |
| 2026-04-24 20:37 | 33.95034 | -118.40001 | 108 ft | 17 kts | 262° |
| 2026-04-24 20:37 | 33.94982 | -118.40514 | 108 ft | 104 kts | 262° |
| 2026-04-24 20:38 | 33.94856 | -118.41689 | 114 ft | 175 kts | 262° |
| 2026-04-24 20:38 | 33.94710 | -118.43309 | 484 ft | 215 kts | 265° |
| 2026-04-24 20:38 | 33.94585 | -118.45214 | 1165 ft | 224 kts | 262° |
| 2026-04-24 20:38 | 33.94469 | -118.47035 | 2386 ft | 215 kts | 262° |
| 2026-04-24 20:39 | 33.94265 | -118.48874 | 2816 ft | 231 kts | 260° |
| 2026-04-24 20:39 | 33.94005 | -118.50830 | 3302 ft | 240 kts | 259° |
| 2026-04-24 20:39 | 33.93730 | -118.52836 | 3783 ft | 254 kts | 260° |
| 2026-04-24 20:39 | 33.93447 | -118.54987 | 4384 ft | 263 kts | 260° |
| 2026-04-24 20:40 | 33.93188 | -118.57153 | 5365 ft | 262 kts | 262° |
| 2026-04-24 20:40 | 33.92775 | -118.59303 | 6146 ft | 267 kts | 242° |
| 2026-04-24 20:40 | 33.91571 | -118.60908 | 7025 ft | 270 kts | 215° |
| 2026-04-24 20:40 | 33.89819 | -118.61760 | 7771 ft | 278 kts | 190° |
| 2026-04-24 20:41 | 33.87877 | -118.61643 | 8605 ft | 284 kts | 166° |
| 2026-04-24 20:41 | 33.86118 | -118.60511 | 9413 ft | 293 kts | 141° |
| 2026-04-24 20:41 | 33.84883 | -118.58524 | 10155 ft | 304 kts | 116° |
| 2026-04-24 20:41 | 33.84375 | -118.55984 | 10472 ft | 328 kts | 92° |
| 2026-04-24 20:42 | 33.84822 | -118.53224 | 10799 ft | 346 kts | 64° |
| 2026-04-24 20:42 | 33.86276 | -118.50902 | 11397 ft | 351 kts | 40° |
| 2026-04-24 20:42 | 33.88160 | -118.49012 | 12115 ft | 354 kts | 37° |
| 2026-04-24 20:42 | 33.90060 | -118.47089 | 12805 ft | 360 kts | 39° |
| 2026-04-24 20:43 | 33.91911 | -118.45074 | 13475 ft | 366 kts | 40° |
| 2026-04-24 20:43 | 33.93657 | -118.42799 | 14113 ft | 374 kts | 52° |
| 2026-04-24 20:43 | 33.95142 | -118.40202 | 14741 ft | 379 kts | 54° |
| 2026-04-24 20:43 | 33.96605 | -118.37528 | 15356 ft | 385 kts | 54° |
| 2026-04-24 20:44 | 33.98104 | -118.34818 | 15965 ft | 390 kts | 54° |
| 2026-04-24 20:44 | 33.99633 | -118.32097 | 16570 ft | 395 kts | 53° |
| 2026-04-24 20:44 | 34.01105 | -118.29497 | 17124 ft | 400 kts | 53° |
| 2026-04-24 20:44 | 34.02689 | -118.26708 | 17722 ft | 405 kts | 53° |
| 2026-04-24 20:45 | 34.04290 | -118.23888 | 18312 ft | 410 kts | 53° |
| 2026-04-24 20:45 | 34.05910 | -118.21031 | 18815 ft | 415 kts | 52° |
| 2026-04-24 20:45 | 34.07520 | -118.18187 | 19313 ft | 420 kts | 52° |
| 2026-04-24 20:45 | 34.09176 | -118.15259 | 19821 ft | 424 kts | 52° |
| 2026-04-24 20:46 | 34.10807 | -118.12374 | 20316 ft | 429 kts | 52° |
| 2026-04-24 20:46 | 34.12538 | -118.09309 | 20827 ft | 433 kts | 52° |
| 2026-04-24 20:46 | 34.14243 | -118.06287 | 21303 ft | 438 kts | 51° |
| 2026-04-24 20:46 | 34.15970 | -118.03226 | 21784 ft | 443 kts | 51° |
| 2026-04-24 20:47 | 34.17710 | -118.00137 | 22288 ft | 447 kts | 51° |
| 2026-04-24 20:47 | 34.19465 | -117.97017 | 22793 ft | 450 kts | 51° |
| 2026-04-24 20:47 | 34.21227 | -117.93883 | 23229 ft | 455 kts | 50° |
| 2026-04-24 20:47 | 34.22993 | -117.90739 | 23576 ft | 461 kts | 50° |
| 2026-04-24 20:48 | 34.24823 | -117.87476 | 24014 ft | 464 kts | 50° |
| 2026-04-24 20:48 | 34.26621 | -117.84265 | 24456 ft | 467 kts | 51° |
| 2026-04-24 20:48 | 34.28383 | -117.81115 | 24864 ft | 469 kts | 51° |
| 2026-04-24 20:48 | 34.30217 | -117.77835 | 25261 ft | 472 kts | 51° |
| 2026-04-24 20:49 | 34.32064 | -117.74530 | 25624 ft | 475 kts | 51° |
| 2026-04-24 20:49 | 34.33919 | -117.71208 | 26067 ft | 476 kts | 51° |
| 2026-04-24 20:49 | 34.35788 | -117.67877 | 26419 ft | 480 kts | 50° |
| 2026-04-24 20:49 | 34.37725 | -117.64566 | 26743 ft | 483 kts | 49° |
| 2026-04-24 20:50 | 34.39708 | -117.61264 | 27085 ft | 486 kts | 49° |
| 2026-04-24 20:50 | 34.41695 | -117.57984 | 27445 ft | 489 kts | 49° |
| 2026-04-24 20:50 | 34.43710 | -117.54652 | 27812 ft | 491 kts | 49° |
| 2026-04-24 20:50 | 34.45729 | -117.51296 | 28147 ft | 495 kts | 49° |
| 2026-04-24 20:51 | 34.47756 | -117.47910 | 28476 ft | 498 kts | 50° |
| 2026-04-24 20:51 | 34.49791 | -117.44493 | 28808 ft | 501 kts | 50° |
| 2026-04-24 20:51 | 34.51833 | -117.41058 | 29133 ft | 504 kts | 50° |
| 2026-04-24 20:51 | 34.53886 | -117.37596 | 29440 ft | 507 kts | 50° |
| 2026-04-24 20:52 | 34.55950 | -117.34112 | 29748 ft | 510 kts | 50° |
| 2026-04-24 20:52 | 34.58029 | -117.30600 | 30024 ft | 513 kts | 50° |
| 2026-04-24 20:52 | 34.60117 | -117.27070 | 30273 ft | 516 kts | 50° |
| 2026-04-24 20:52 | 34.62190 | -117.23563 | 30511 ft | 518 kts | 50° |
| 2026-04-24 20:53 | 34.64298 | -117.19992 | 30756 ft | 520 kts | 50° |
| 2026-04-24 20:53 | 34.66411 | -117.16411 | 31025 ft | 522 kts | 50° |
| 2026-04-24 20:53 | 34.68373 | -117.13080 | 31312 ft | 522 kts | 50° |
| 2026-04-24 20:53 | 34.70484 | -117.09493 | 31613 ft | 522 kts | 50° |
| 2026-04-24 20:54 | 34.72603 | -117.05892 | 31867 ft | 523 kts | 50° |
| 2026-04-24 20:54 | 34.74720 | -117.02288 | 32163 ft | 523 kts | 50° |
| 2026-04-24 20:54 | 34.76834 | -116.98687 | 32487 ft | 523 kts | 50° |
| 2026-04-24 20:54 | 34.78948 | -116.95081 | 32819 ft | 523 kts | 50° |
| 2026-04-24 20:55 | 34.81062 | -116.91473 | 33090 ft | 524 kts | 50° |
| 2026-04-24 20:55 | 34.83179 | -116.87857 | 33347 ft | 525 kts | 50° |
| 2026-04-24 20:55 | 34.85298 | -116.84231 | 33653 ft | 525 kts | 51° |
| 2026-04-24 20:55 | 34.87417 | -116.80603 | 33940 ft | 525 kts | 51° |
| 2026-04-24 20:56 | 34.89526 | -116.76988 | 34241 ft | 523 kts | 50° |
| 2026-04-24 20:56 | 34.91633 | -116.73389 | 34584 ft | 519 kts | 49° |
| 2026-04-24 20:56 | 34.93877 | -116.70081 | 34890 ft | 513 kts | 42° |
| 2026-04-24 20:56 | 34.96296 | -116.66868 | 34883 ft | 516 kts | 41° |
| 2026-04-24 20:57 | 35.01229 | -116.60509 | 34872 ft | 516 kts | 40° |
| 2026-04-24 20:57 | 35.06077 | -116.54212 | 34853 ft | 510 kts | 41° |
| 2026-04-24 20:58 | 35.10898 | -116.47865 | 34869 ft | 509 kts | 41° |
| 2026-04-24 20:58 | 35.15584 | -116.41658 | 34868 ft | 509 kts | 41° |
| 2026-04-24 20:59 | 35.19575 | -116.36360 | 34858 ft | 509 kts | 41° |
| 2026-04-24 20:59 | 35.24373 | -116.29982 | 34854 ft | 510 kts | 41° |
| 2026-04-24 21:00 | 35.29174 | -116.23591 | 34852 ft | 510 kts | 41° |
| 2026-04-24 21:00 | 35.33973 | -116.17196 | 34854 ft | 510 kts | 41° |
| 2026-04-24 21:01 | 35.38768 | -116.10787 | 34864 ft | 510 kts | 42° |
| 2026-04-24 21:01 | 35.43574 | -116.04352 | 34861 ft | 511 kts | 42° |
| 2026-04-24 21:02 | 35.48377 | -115.97911 | 34873 ft | 512 kts | 42° |
| 2026-04-24 21:02 | 35.53147 | -115.91500 | 34872 ft | 513 kts | 42° |
| 2026-04-24 21:03 | 35.57959 | -115.85020 | 34871 ft | 513 kts | 42° |
| 2026-04-24 21:03 | 35.62699 | -115.78627 | 34876 ft | 513 kts | 42° |
| 2026-04-24 21:04 | 35.67452 | -115.72151 | 34886 ft | 514 kts | 43° |
| 2026-04-24 21:04 | 35.72219 | -115.65587 | 34883 ft | 514 kts | 43° |
| 2026-04-24 21:05 | 35.76977 | -115.59026 | 34884 ft | 513 kts | 43° |
| 2026-04-24 21:05 | 35.81723 | -115.52477 | 34891 ft | 513 kts | 43° |
| 2026-04-24 21:06 | 35.85788 | -115.46866 | 34875 ft | 513 kts | 43° |
| 2026-04-24 21:06 | 35.90533 | -115.40296 | 34890 ft | 513 kts | 43° |
| 2026-04-24 21:07 | 35.95276 | -115.33715 | 34889 ft | 512 kts | 43° |
| 2026-04-24 21:07 | 35.99883 | -115.27312 | 34887 ft | 512 kts | 43° |
| 2026-04-24 21:08 | 36.04443 | -115.20964 | 34852 ft | 511 kts | 43° |
| 2026-04-24 21:08 | 36.08483 | -115.14180 | 34849 ft | 519 kts | 58° |
| 2026-04-24 21:09 | 36.11243 | -115.05972 | 34864 ft | 522 kts | 69° |
| 2026-04-24 21:09 | 36.13685 | -114.97512 | 34796 ft | 521 kts | 68° |
| 2026-04-24 21:10 | 36.16214 | -114.89100 | 34787 ft | 521 kts | 68° |
| 2026-04-24 21:10 | 36.18757 | -114.80780 | 34785 ft | 520 kts | 68° |
| 2026-04-24 21:11 | 36.21329 | -114.72397 | 34776 ft | 520 kts | 68° |
| 2026-04-24 21:11 | 36.23899 | -114.64020 | 34766 ft | 520 kts | 68° |
| 2026-04-24 21:12 | 36.26445 | -114.55688 | 34762 ft | 520 kts | 68° |
| 2026-04-24 21:12 | 36.28999 | -114.47298 | 34776 ft | 520 kts | 68° |
| 2026-04-24 21:13 | 36.31545 | -114.38907 | 34778 ft | 520 kts | 68° |
| 2026-04-24 21:13 | 36.34087 | -114.30508 | 34795 ft | 520 kts | 68° |
| 2026-04-24 21:14 | 36.36625 | -114.22093 | 34787 ft | 521 kts | 68° |
| 2026-04-24 21:14 | 36.39159 | -114.13667 | 34805 ft | 521 kts | 68° |
| 2026-04-24 21:15 | 36.41672 | -114.05288 | 34810 ft | 520 kts | 68° |
| 2026-04-24 21:15 | 36.44191 | -113.96861 | 34818 ft | 520 kts | 68° |
| 2026-04-24 21:16 | 36.46704 | -113.88433 | 34819 ft | 520 kts | 68° |
| 2026-04-24 21:16 | 36.49207 | -113.80009 | 34826 ft | 519 kts | 68° |
| 2026-04-24 21:17 | 36.51706 | -113.71576 | 34832 ft | 519 kts | 68° |
| 2026-04-24 21:17 | 36.54195 | -113.63151 | 34844 ft | 519 kts | 68° |
| 2026-04-24 21:18 | 36.56678 | -113.54718 | 34836 ft | 519 kts | 68° |
| 2026-04-24 21:18 | 36.59151 | -113.46295 | 34842 ft | 518 kts | 68° |
| 2026-04-24 21:19 | 36.61619 | -113.37863 | 34839 ft | 518 kts | 68° |
| 2026-04-24 21:19 | 36.64076 | -113.29428 | 34837 ft | 518 kts | 68° |
| 2026-04-24 21:20 | 36.67714 | -113.16813 | 34860 ft | 517 kts | 69° |
| 2026-04-24 21:21 | 36.70140 | -113.08371 | 34887 ft | 517 kts | 69° |
| 2026-04-24 21:21 | 36.72560 | -112.99925 | 34899 ft | 517 kts | 69° |
| 2026-04-24 21:22 | 36.74975 | -112.91476 | 34900 ft | 518 kts | 69° |
| 2026-04-24 21:22 | 36.77385 | -112.83013 | 34894 ft | 517 kts | 69° |
| 2026-04-24 21:23 | 36.79738 | -112.74729 | 34880 ft | 517 kts | 69° |
| 2026-04-24 21:23 | 36.82135 | -112.66262 | 34856 ft | 517 kts | 69° |
| 2026-04-24 21:24 | 36.84526 | -112.57787 | 34837 ft | 517 kts | 69° |
| 2026-04-24 21:24 | 36.86900 | -112.49351 | 34841 ft | 517 kts | 69° |
| 2026-04-24 21:25 | 36.89283 | -112.40862 | 34837 ft | 517 kts | 69° |
| 2026-04-24 21:25 | 36.91663 | -112.32384 | 34840 ft | 517 kts | 69° |
| 2026-04-24 21:26 | 36.94041 | -112.23901 | 34837 ft | 517 kts | 69° |
| 2026-04-24 21:26 | 36.96413 | -112.15414 | 34827 ft | 517 kts | 69° |
| 2026-04-24 21:27 | 36.98774 | -112.06933 | 34811 ft | 516 kts | 69° |
| 2026-04-24 21:27 | 37.01127 | -111.98456 | 34801 ft | 515 kts | 69° |
| 2026-04-24 21:28 | 37.03469 | -111.89990 | 34787 ft | 514 kts | 69° |
| 2026-04-24 21:28 | 37.05787 | -111.81585 | 34800 ft | 513 kts | 69° |
| 2026-04-24 21:29 | 37.08110 | -111.73135 | 34803 ft | 512 kts | 69° |
| 2026-04-24 21:29 | 37.10420 | -111.64705 | 34812 ft | 511 kts | 69° |
| 2026-04-24 21:30 | 37.12721 | -111.56281 | 34820 ft | 510 kts | 69° |
| 2026-04-24 21:30 | 37.15013 | -111.47858 | 34810 ft | 510 kts | 69° |
| 2026-04-24 21:31 | 37.17298 | -111.39444 | 34807 ft | 509 kts | 69° |
| 2026-04-24 21:31 | 37.19561 | -111.31079 | 34780 ft | 509 kts | 69° |
| 2026-04-24 21:32 | 37.21848 | -111.22670 | 34767 ft | 508 kts | 67° |
| 2026-04-24 21:32 | 37.24834 | -111.14674 | 34759 ft | 505 kts | 59° |
| 2026-04-24 21:33 | 37.28043 | -111.06822 | 34734 ft | 505 kts | 59° |
| 2026-04-24 21:33 | 37.31231 | -110.98958 | 34743 ft | 504 kts | 60° |
| 2026-04-24 21:34 | 37.34373 | -110.91079 | 34742 ft | 504 kts | 60° |
| 2026-04-24 21:34 | 37.37494 | -110.83180 | 34752 ft | 504 kts | 60° |
| 2026-04-24 21:35 | 37.40589 | -110.75323 | 34745 ft | 504 kts | 60° |
| 2026-04-24 21:35 | 37.43701 | -110.67406 | 34749 ft | 504 kts | 60° |
| 2026-04-24 21:36 | 37.46810 | -110.59487 | 34754 ft | 505 kts | 60° |
| 2026-04-24 21:36 | 37.49920 | -110.51543 | 34758 ft | 506 kts | 60° |
| 2026-04-24 21:37 | 37.53008 | -110.43633 | 34767 ft | 507 kts | 60° |
| 2026-04-24 21:37 | 37.56118 | -110.35647 | 34758 ft | 507 kts | 60° |
| 2026-04-24 21:38 | 37.59211 | -110.27674 | 34762 ft | 503 kts | 60° |
| 2026-04-24 21:38 | 37.62272 | -110.19775 | 34771 ft | 500 kts | 60° |
| 2026-04-24 21:39 | 37.65315 | -110.11906 | 34788 ft | 498 kts | 60° |
| 2026-04-24 21:39 | 37.68328 | -110.04093 | 34796 ft | 498 kts | 60° |
| 2026-04-24 21:40 | 37.71358 | -109.96215 | 34807 ft | 498 kts | 60° |
| 2026-04-24 21:40 | 37.74380 | -109.88335 | 34811 ft | 498 kts | 60° |
| 2026-04-24 21:41 | 37.77405 | -109.80431 | 34834 ft | 498 kts | 60° |
| 2026-04-24 21:41 | 37.80403 | -109.72576 | 34836 ft | 499 kts | 61° |
| 2026-04-24 21:42 | 37.83412 | -109.64668 | 34846 ft | 499 kts | 61° |
| 2026-04-24 21:42 | 37.86423 | -109.56735 | 34845 ft | 500 kts | 61° |
| 2026-04-24 21:43 | 37.89436 | -109.48778 | 34831 ft | 502 kts | 61° |
| 2026-04-24 21:43 | 37.92447 | -109.40805 | 34798 ft | 501 kts | 61° |
| 2026-04-24 21:44 | 37.95445 | -109.32845 | 34798 ft | 500 kts | 61° |
| 2026-04-24 21:44 | 37.98430 | -109.24898 | 34795 ft | 499 kts | 61° |
| 2026-04-24 21:45 | 38.01385 | -109.17011 | 34798 ft | 498 kts | 61° |
| 2026-04-24 21:45 | 38.04351 | -109.09077 | 34798 ft | 497 kts | 61° |
| 2026-04-24 21:46 | 38.07301 | -109.01163 | 34794 ft | 496 kts | 61° |
| 2026-04-24 21:46 | 38.09754 | -108.94569 | 34791 ft | 495 kts | 62° |
| 2026-04-24 21:47 | 38.12770 | -108.86727 | 34785 ft | 493 kts | 60° |
| 2026-04-24 21:47 | 38.15870 | -108.78927 | 34779 ft | 493 kts | 60° |
| 2026-04-24 21:48 | 38.18948 | -108.71146 | 34786 ft | 493 kts | 60° |
| 2026-04-24 21:48 | 38.22004 | -108.63352 | 34790 ft | 492 kts | 60° |
| 2026-04-24 21:49 | 38.25027 | -108.55602 | 34795 ft | 492 kts | 60° |
| 2026-04-24 21:49 | 38.28066 | -108.47793 | 34794 ft | 492 kts | 60° |
| 2026-04-24 21:50 | 38.31105 | -108.39967 | 34795 ft | 492 kts | 60° |
| 2026-04-24 21:50 | 38.34136 | -108.32140 | 34795 ft | 493 kts | 60° |
| 2026-04-24 21:51 | 38.37149 | -108.24341 | 34808 ft | 494 kts | 60° |
| 2026-04-24 21:51 | 38.40179 | -108.16478 | 34831 ft | 494 kts | 61° |
| 2026-04-24 21:52 | 38.43205 | -108.08605 | 34867 ft | 495 kts | 61° |
| 2026-04-24 21:52 | 38.46233 | -108.00708 | 34883 ft | 495 kts | 61° |
| 2026-04-24 21:53 | 38.49239 | -107.92783 | 34892 ft | 496 kts | 61° |
| 2026-04-24 21:53 | 38.52231 | -107.84843 | 34895 ft | 496 kts | 61° |
| 2026-04-24 21:54 | 38.55223 | -107.76892 | 34892 ft | 497 kts | 61° |
| 2026-04-24 21:54 | 38.58225 | -107.68897 | 34858 ft | 498 kts | 61° |
| 2026-04-24 21:55 | 38.61195 | -107.60968 | 34831 ft | 497 kts | 61° |
| 2026-04-24 21:55 | 38.64175 | -107.52991 | 34823 ft | 495 kts | 61° |
| 2026-04-24 21:56 | 38.67153 | -107.45041 | 34810 ft | 495 kts | 60° |
| 2026-04-24 21:56 | 38.70161 | -107.37115 | 34826 ft | 494 kts | 60° |
| 2026-04-24 21:57 | 38.73160 | -107.29199 | 34828 ft | 494 kts | 60° |
| 2026-04-24 21:57 | 38.76147 | -107.21279 | 34860 ft | 493 kts | 60° |
| 2026-04-24 21:58 | 38.79125 | -107.13353 | 34873 ft | 493 kts | 61° |
| 2026-04-24 21:58 | 38.82075 | -107.05482 | 34876 ft | 492 kts | 61° |
| 2026-04-24 21:59 | 38.85038 | -106.97555 | 34834 ft | 492 kts | 61° |
| 2026-04-24 21:59 | 38.87978 | -106.89663 | 34810 ft | 488 kts | 61° |
| 2026-04-24 22:00 | 38.90897 | -106.81814 | 34832 ft | 487 kts | 61° |
| 2026-04-24 22:00 | 38.92361 | -106.77871 | 34487 ft | 488 kts | 61° |
| 2026-04-24 22:00 | 38.93814 | -106.73949 | 34180 ft | 483 kts | 61° |
| 2026-04-24 22:00 | 38.95252 | -106.70063 | 33773 ft | 480 kts | 61° |
| 2026-04-24 22:01 | 38.96678 | -106.66204 | 33342 ft | 477 kts | 61° |
| 2026-04-24 22:01 | 38.98079 | -106.62408 | 32946 ft | 474 kts | 61° |
| 2026-04-24 22:01 | 38.99386 | -106.58866 | 32587 ft | 472 kts | 61° |
| 2026-04-24 22:01 | 39.00763 | -106.55123 | 32212 ft | 470 kts | 61° |
| 2026-04-24 22:02 | 39.02154 | -106.51326 | 31823 ft | 467 kts | 61° |
| 2026-04-24 22:02 | 39.03531 | -106.47559 | 31470 ft | 464 kts | 61° |
| 2026-04-24 22:02 | 39.04902 | -106.43805 | 31115 ft | 462 kts | 61° |
| 2026-04-24 22:02 | 39.06267 | -106.40062 | 30740 ft | 461 kts | 61° |
| 2026-04-24 22:03 | 39.07624 | -106.36340 | 30389 ft | 458 kts | 61° |
| 2026-04-24 22:03 | 39.08974 | -106.32631 | 30031 ft | 456 kts | 61° |
| 2026-04-24 22:03 | 39.10316 | -106.28942 | 29617 ft | 453 kts | 61° |
| 2026-04-24 22:03 | 39.11646 | -106.25279 | 29275 ft | 449 kts | 61° |
| 2026-04-24 22:04 | 39.12957 | -106.21663 | 28993 ft | 443 kts | 61° |
| 2026-04-24 22:04 | 39.14253 | -106.18088 | 28639 ft | 438 kts | 61° |
| 2026-04-24 22:04 | 39.15535 | -106.14544 | 28232 ft | 434 kts | 61° |
| 2026-04-24 22:04 | 39.16799 | -106.11037 | 27812 ft | 430 kts | 61° |
| 2026-04-24 22:05 | 39.18051 | -106.07552 | 27434 ft | 426 kts | 62° |
| 2026-04-24 22:05 | 39.19237 | -106.04248 | 27099 ft | 422 kts | 62° |
| 2026-04-24 22:05 | 39.20464 | -106.00828 | 26736 ft | 418 kts | 62° |
| 2026-04-24 22:05 | 39.21679 | -105.97441 | 26362 ft | 414 kts | 62° |
| 2026-04-24 22:06 | 39.22880 | -105.94087 | 26018 ft | 410 kts | 62° |
| 2026-04-24 22:06 | 39.24069 | -105.90764 | 25690 ft | 406 kts | 62° |
| 2026-04-24 22:06 | 39.25251 | -105.87480 | 25326 ft | 403 kts | 62° |
| 2026-04-24 22:06 | 39.26428 | -105.84216 | 24990 ft | 399 kts | 62° |
| 2026-04-24 22:07 | 39.27592 | -105.80988 | 24679 ft | 395 kts | 63° |
| 2026-04-24 22:07 | 39.28746 | -105.77784 | 24376 ft | 391 kts | 63° |
| 2026-04-24 22:07 | 39.29873 | -105.74648 | 24088 ft | 387 kts | 63° |
| 2026-04-24 22:07 | 39.31003 | -105.71499 | 23769 ft | 384 kts | 63° |
| 2026-04-24 22:08 | 39.32112 | -105.68406 | 23439 ft | 382 kts | 63° |
| 2026-04-24 22:08 | 39.33230 | -105.65305 | 23107 ft | 379 kts | 63° |
| 2026-04-24 22:08 | 39.34351 | -105.62235 | 22724 ft | 377 kts | 63° |
| 2026-04-24 22:08 | 39.35456 | -105.59218 | 22342 ft | 375 kts | 63° |
| 2026-04-24 22:09 | 39.36566 | -105.56182 | 22019 ft | 372 kts | 63° |
| 2026-04-24 22:09 | 39.37669 | -105.53160 | 21597 ft | 371 kts | 63° |
| 2026-04-24 22:09 | 39.38764 | -105.50154 | 21255 ft | 368 kts | 64° |
| 2026-04-24 22:09 | 39.39850 | -105.47166 | 20893 ft | 366 kts | 64° |
| 2026-04-24 22:10 | 39.40931 | -105.44190 | 20466 ft | 366 kts | 64° |
| 2026-04-24 22:10 | 39.41696 | -105.41119 | 20149 ft | 363 kts | 84° |
| 2026-04-24 22:10 | 39.41814 | -105.37884 | 19844 ft | 358 kts | 90° |
| 2026-04-24 22:10 | 39.41820 | -105.34659 | 19416 ft | 359 kts | 91° |
| 2026-04-24 22:11 | 39.41806 | -105.31489 | 19133 ft | 355 kts | 92° |
| 2026-04-24 22:11 | 39.41795 | -105.28308 | 18817 ft | 353 kts | 91° |
| 2026-04-24 22:11 | 39.41792 | -105.25121 | 18458 ft | 353 kts | 91° |
| 2026-04-24 22:11 | 39.41798 | -105.21963 | 18176 ft | 350 kts | 91° |
| 2026-04-24 22:12 | 39.41808 | -105.18815 | 17782 ft | 351 kts | 91° |
| 2026-04-24 22:12 | 39.41820 | -105.15671 | 17523 ft | 347 kts | 91° |
| 2026-04-24 22:12 | 39.41833 | -105.12602 | 17193 ft | 345 kts | 91° |
| 2026-04-24 22:12 | 39.41845 | -105.09500 | 16851 ft | 344 kts | 91° |
| 2026-04-24 22:13 | 39.41857 | -105.06423 | 16604 ft | 339 kts | 91° |
| 2026-04-24 22:13 | 39.41869 | -105.03410 | 16513 ft | 329 kts | 90° |
| 2026-04-24 22:13 | 39.41879 | -105.00506 | 16330 ft | 317 kts | 90° |
| 2026-04-24 22:13 | 39.41887 | -104.97695 | 16143 ft | 307 kts | 90° |
| 2026-04-24 22:14 | 39.41895 | -104.94973 | 15876 ft | 299 kts | 90° |
| 2026-04-24 22:14 | 39.42016 | -104.92341 | 15744 ft | 286 kts | 84° |
| 2026-04-24 22:14 | 39.42246 | -104.89876 | 15668 ft | 268 kts | 83° |
| 2026-04-24 22:14 | 39.42477 | -104.87506 | 15332 ft | 264 kts | 83° |
| 2026-04-24 22:15 | 39.42698 | -104.85184 | 14894 ft | 264 kts | 83° |
| 2026-04-24 22:15 | 39.42914 | -104.82830 | 14502 ft | 261 kts | 83° |
| 2026-04-24 22:15 | 39.43121 | -104.80539 | 14213 ft | 253 kts | 83° |
| 2026-04-24 22:15 | 39.43320 | -104.78285 | 13792 ft | 252 kts | 83° |
| 2026-04-24 22:16 | 39.43542 | -104.76029 | 13354 ft | 251 kts | 77° |
| 2026-04-24 22:16 | 39.44056 | -104.73886 | 12984 ft | 246 kts | 65° |
| 2026-04-24 22:16 | 39.45037 | -104.72140 | 12498 ft | 239 kts | 33° |
| 2026-04-24 22:16 | 39.46444 | -104.71083 | 12096 ft | 232 kts | 19° |
| 2026-04-24 22:17 | 39.47920 | -104.70280 | 11691 ft | 228 kts | 14° |
| 2026-04-24 22:17 | 39.49444 | -104.70001 | 11251 ft | 219 kts | 354° |
| 2026-04-24 22:17 | 39.50846 | -104.70015 | 10871 ft | 218 kts | 355° |
| 2026-04-24 22:17 | 39.52364 | -104.70012 | 10484 ft | 216 kts | 355° |
| 2026-04-24 22:18 | 39.53859 | -104.70005 | 10114 ft | 215 kts | 355° |
| 2026-04-24 22:18 | 39.55321 | -104.69994 | 10037 ft | 211 kts | 355° |
| 2026-04-24 22:18 | 39.56804 | -104.69982 | 9998 ft | 217 kts | 355° |
| 2026-04-24 22:18 | 39.58331 | -104.69968 | 9994 ft | 220 kts | 355° |
| 2026-04-24 22:19 | 39.59875 | -104.69950 | 9799 ft | 224 kts | 356° |
| 2026-04-24 22:19 | 39.61427 | -104.69932 | 9577 ft | 220 kts | 356° |
| 2026-04-24 22:19 | 39.62933 | -104.69912 | 9343 ft | 213 kts | 355° |
| 2026-04-24 22:19 | 39.64348 | -104.69894 | 9295 ft | 197 kts | 355° |
| 2026-04-24 22:20 | 39.65728 | -104.69881 | 9073 ft | 199 kts | 355° |
| 2026-04-24 22:20 | 39.67120 | -104.69866 | 8813 ft | 199 kts | 356° |
| 2026-04-24 22:20 | 39.68493 | -104.69851 | 8523 ft | 196 kts | 356° |
| 2026-04-24 22:20 | 39.69848 | -104.69834 | 8272 ft | 194 kts | 356° |
| 2026-04-24 22:21 | 39.71173 | -104.69818 | 8025 ft | 187 kts | 356° |
| 2026-04-24 22:21 | 39.72453 | -104.69805 | 7814 ft | 182 kts | 355° |
| 2026-04-24 22:21 | 39.73713 | -104.69791 | 7564 ft | 177 kts | 356° |
| 2026-04-24 22:21 | 39.74963 | -104.69776 | 7334 ft | 179 kts | 356° |
| 2026-04-24 22:22 | 39.76166 | -104.69763 | 7089 ft | 171 kts | 356° |
| 2026-04-24 22:22 | 39.77341 | -104.69748 | 6906 ft | 170 kts | 356° |
| 2026-04-24 22:22 | 39.78537 | -104.69738 | 6720 ft | 173 kts | 355° |
| 2026-04-24 22:22 | 39.79742 | -104.69723 | 6476 ft | 173 kts | 356° |
| 2026-04-24 22:23 | 39.80954 | -104.69715 | 6293 ft | 176 kts | 356° |
| 2026-04-24 22:23 | 39.82150 | -104.69688 | 5994 ft | 166 kts | 356° |
| 2026-04-24 22:23 | 39.83292 | -104.69677 | 5793 ft | 166 kts | 357° |
| 2026-04-24 22:23 | 39.84434 | -104.69669 | 5541 ft | 159 kts | 357° |
| 2026-04-24 22:24 | 39.85528 | -104.69649 | 5379 ft | 153 kts | 355° |
| 2026-04-24 22:24 | 39.86491 | -104.69641 | 5362 ft | 126 kts | 359° |
| 2026-04-24 22:24 | 39.87211 | -104.69638 | 5366 ft | 84 kts | 1° |
| 2026-04-24 22:24 | 39.87649 | -104.69636 | 5362 ft | 42 kts | 359° |
| 2026-04-24 22:25 | 39.87859 | -104.69632 | 5363 ft | 28 kts | 0° |
| 2026-04-24 22:25 | 39.88049 | -104.69629 | 5364 ft | 26 kts | 0° |
| 2026-04-24 22:25 | 39.88200 | -104.69606 | 5364 ft | 25 kts | 19° |
| 2026-04-24 22:25 | 39.88334 | -104.69536 | 5364 ft | 19 kts | 30° |
| 2026-04-24 22:26 | 39.88434 | -104.69451 | 5363 ft | 14 kts | 33° |
| 2026-04-24 22:26 | 39.88483 | -104.69351 | 5365 ft | 14 kts | 91° |
| 2026-04-24 22:26 | 39.88480 | -104.69230 | 5364 ft | 13 kts | 91° |
| 2026-04-24 22:26 | 39.88478 | -104.69114 | 5365 ft | 13 kts | 90° |
| 2026-04-24 22:27 | 39.88477 | -104.69000 | 5364 ft | 12 kts | 90° |
| 2026-04-24 22:27 | 39.88476 | -104.68889 | 5365 ft | 12 kts | 90° |
| 2026-04-24 22:27 | 39.88475 | -104.68782 | 5365 ft | 12 kts | 90° |
| 2026-04-24 22:27 | 39.88441 | -104.68700 | 5361 ft | 12 kts | 161° |
| 2026-04-24 22:28 | 39.88351 | -104.68688 | 5362 ft | 16 kts | 179° |
| 2026-04-24 22:28 | 39.88206 | -104.68693 | 5364 ft | 25 kts | 180° |
| 2026-04-24 22:28 | 39.88023 | -104.68695 | 5366 ft | 26 kts | 181° |
| 2026-04-24 22:28 | 39.87858 | -104.68680 | 5367 ft | 21 kts | 169° |
| 2026-04-24 22:29 | 39.87601 | -104.68542 | 5365 ft | 19 kts | 152° |
| 2026-04-24 22:29 | 39.87477 | -104.68488 | 5363 ft | 19 kts | 174° |
| 2026-04-24 22:29 | 39.87400 | -104.68414 | 5363 ft | 14 kts | 127° |
| 2026-04-24 22:30 | 39.87312 | -104.68374 | 5364 ft | 14 kts | 179° |
| 2026-04-24 22:30 | 39.87219 | -104.68373 | 5363 ft | 13 kts | 180° |
| 2026-04-24 22:30 | 39.87130 | -104.68381 | 5363 ft | 13 kts | 187° |
| 2026-04-24 22:30 | 39.87044 | -104.68386 | 5364 ft | 12 kts | 175° |
| 2026-04-24 22:31 | 39.86958 | -104.68384 | 5364 ft | 12 kts | 180° |
| 2026-04-24 22:31 | 39.86875 | -104.68384 | 5364 ft | 12 kts | 179° |
| 2026-04-24 22:31 | 39.86790 | -104.68383 | 5363 ft | 14 kts | 179° |
| 2026-04-24 22:31 | 39.86682 | -104.68384 | 5364 ft | 17 kts | 181° |
| 2026-04-24 22:32 | 39.86564 | -104.68387 | 5364 ft | 17 kts | 181° |
| 2026-04-24 22:32 | 39.86452 | -104.68372 | 5363 ft | 16 kts | 145° |
| 2026-04-24 22:32 | 39.86427 | -104.68240 | 5365 ft | 15 kts | 86° |
| 2026-04-24 22:32 | 39.86478 | -104.68124 | 5365 ft | 15 kts | 76° |
| 2026-04-24 22:33 | 39.86471 | -104.67995 | 5365 ft | 14 kts | 121° |
| 2026-04-24 22:33 | 39.86421 | -104.67892 | 5363 ft | 14 kts | 101° |
| 2026-04-24 22:33 | 39.86419 | -104.67773 | 5365 ft | 13 kts | 87° |
| 2026-04-24 22:33 | 39.86419 | -104.67658 | 5365 ft | 13 kts | 91° |
| 2026-04-24 22:34 | 39.86418 | -104.67548 | 5365 ft | 11 kts | 89° |
| 2026-04-24 22:34 | 39.86419 | -104.67491 | 5365 ft | 6 kts | 91° |
| 2026-04-24 22:34 | 39.86392 | -104.67465 | 5365 ft | 5 kts | 183° |
| 2026-04-24 22:34 | 39.86367 | -104.67472 | 5364 ft | 2 kts | 194° |
| 2026-04-24 22:35 | 39.86361 | -104.67474 | 5363 ft | 0 kts | 195° |